Pagrindinis puslapis
METAR-TAF:

METAR-TAF

Oro uostai :

Puerto Fransisko de Oreljana, Ekvadoras

platuma: 00-27-46S, ilguma: 076-59-12W, Aukštis: 254 m

Dabartinis oras

Ataskaita buvo paskelbta 1 valandą ir 7 minutes, ne 11:00 UTC
Vėjas 2 kt iš Šiaurės
Temperatūra 23°C
Drėgmė 100%
Slėgis 1012 hPa
Matomumas 10 km arba daugiau
Mažai debesys ne aukštis 1000 ft
Išsisklaidę debesys ne aukštis 2000 ft

METAR: SECO 281100Z 01002KT 9999 FEW010 SCT020 23/23 Q1012 RMK A2991

Laikas: 07:07 (12:07 UTC)


TAF: trūkstamas

Orai ataskaitas ir orų prognozės (METAR, TAF).

turimą stotys yra geltonos ir raudonos taškus žemėlapyje.

Perkelti pele per norėdami pamatyti stoties vardą.

Tada spustelėkite, norėdami matyti oro stebėjimo ir prognozės.

Norėdami pakeisti žemėlapį: spustelėkite ant žalios mygtukų su juodo kryžiaus žemyn,; žalią mygtuką su brūkšneliu, jei norite nutolinti; arba žalių rodyklių gretimoms žemėlapius.


METAR-TAF: